createdAt,value
2023-02-11T00:00:23.586Z,6.8
2023-02-11T00:04:29.754Z,6.8
2023-02-11T00:06:32.855Z,6.8
2023-02-11T00:10:42.233Z,6.8
2023-02-11T00:15:51.821Z,6.7
2023-02-11T00:17:54.721Z,6.8
2023-02-11T00:22:00.949Z,6.8
2023-02-11T00:24:07.216Z,6.8
2023-02-11T00:26:10.305Z,6.7
2023-02-11T00:28:13.501Z,6.8
2023-02-11T00:30:16.512Z,6.9
2023-02-11T00:32:19.607Z,6.7
2023-02-11T00:34:22.708Z,6.9
2023-02-11T00:36:25.802Z,6.9
2023-02-11T00:38:32.072Z,6.9
2023-02-11T00:40:35.227Z,6.8
2023-02-11T00:42:38.292Z,6.9
2023-02-11T00:44:41.394Z,6.8
2023-02-11T00:48:47.618Z,6.8
2023-02-11T00:50:50.706Z,6.7
2023-02-11T00:52:56.998Z,6.8
2023-02-11T00:55:00.780Z,6.9
2023-02-11T00:57:03.207Z,6.8
2023-02-11T00:59:06.302Z,6.8
2023-02-11T01:01:09.442Z,6.7
2023-02-11T01:03:12.495Z,6.7
2023-02-11T01:05:15.625Z,6.8
2023-02-11T01:07:21.916Z,6.7
2023-02-11T01:09:25.012Z,6.7
2023-02-11T01:11:28.116Z,6.7
2023-02-11T01:16:37.460Z,6.7
2023-02-11T01:18:40.557Z,6.7
2023-02-11T01:28:59.283Z,6.7
2023-02-11T01:31:02.513Z,6.7
2023-02-11T01:33:05.487Z,6.7
2023-02-11T01:35:11.789Z,6.8
2023-02-11T01:37:14.872Z,6.7
2023-02-11T01:39:18.004Z,6.7
2023-02-11T01:41:21.082Z,6.7
2023-02-11T01:43:24.211Z,6.7
2023-02-11T01:45:27.290Z,6.8
2023-02-11T01:47:30.397Z,6.7
2023-02-11T01:49:36.749Z,6.6
2023-02-11T01:51:39.800Z,6.7
2023-02-11T01:53:42.891Z,6.7
2023-02-11T01:57:49.097Z,6.8
2023-02-11T02:04:01.676Z,6.6
2023-02-11T02:08:07.837Z,6.6
2023-02-11T02:11:14.056Z,6.7
2023-02-11T02:13:17.162Z,6.6
2023-02-11T02:15:20.273Z,6.7
2023-02-11T02:19:29.646Z,6.6
2023-02-11T02:21:32.745Z,6.6
2023-02-11T02:23:35.846Z,6.6
2023-02-11T02:25:38.927Z,6.5
2023-02-11T02:27:42.046Z,6.6
2023-02-11T02:29:45.134Z,6.6
2023-02-11T02:31:51.482Z,6.6
2023-02-11T02:33:54.531Z,6.5
2023-02-11T02:35:57.625Z,6.5
2023-02-11T02:38:00.746Z,6.5
2023-02-11T02:44:10.050Z,6.6
2023-02-11T02:52:25.626Z,6.5
2023-02-11T02:54:28.729Z,6.5
2023-02-11T02:56:31.822Z,6.6
2023-02-11T02:58:34.942Z,6.5
2023-02-11T03:00:41.358Z,6.5
2023-02-11T03:02:44.333Z,6.4
2023-02-11T03:04:47.429Z,6.5
2023-02-11T03:09:20.334Z,6.6
2023-02-11T03:13:29.720Z,6.5
2023-02-11T03:15:32.828Z,6.6
2023-02-11T03:19:39.002Z,6.5
2023-02-11T03:21:42.106Z,6.5
2023-02-11T03:23:45.220Z,6.5
2023-02-11T03:25:48.501Z,6.5
2023-02-11T03:27:54.656Z,6.5
2023-02-11T03:29:57.702Z,6.6
2023-02-11T03:32:02.481Z,6.6
2023-02-11T03:34:05.452Z,6.6
2023-02-11T03:36:08.537Z,6.6
2023-02-11T03:38:11.635Z,6.5
2023-02-11T03:40:14.733Z,6.6
2023-02-11T03:42:21.103Z,6.5
2023-02-11T03:44:24.200Z,6.6
2023-02-11T03:46:27.383Z,6.6
2023-02-11T03:48:30.402Z,6.6
2023-02-11T03:58:49.087Z,6.6
2023-02-11T04:00:52.294Z,6.5
2023-02-11T04:06:01.494Z,6.6
2023-02-11T04:08:04.566Z,6.6
2023-02-11T04:10:10.846Z,6.6
2023-02-11T04:12:13.968Z,6.6
2023-02-11T04:14:17.029Z,6.6
2023-02-11T04:16:20.228Z,6.7
2023-02-11T04:18:23.249Z,6.6
2023-02-11T04:20:26.325Z,6.6
2023-02-11T04:22:29.393Z,6.5
2023-02-11T04:24:35.706Z,6.6
2023-02-11T04:26:38.817Z,6.6
2023-02-11T04:28:41.898Z,6.7
2023-02-11T04:30:45.085Z,6.6
2023-02-11T04:32:48.111Z,6.6
2023-02-11T04:34:51.205Z,6.6
2023-02-11T04:39:00.617Z,6.6
2023-02-11T04:41:03.720Z,6.7
2023-02-11T04:43:06.800Z,6.6
2023-02-11T04:45:09.897Z,6.6
2023-02-11T04:47:13.000Z,6.7
2023-02-11T04:51:19.218Z,6.7
2023-02-11T04:53:25.521Z,6.7
2023-02-11T04:55:28.624Z,6.6
2023-02-11T04:57:31.726Z,6.6
2023-02-11T04:58:34.864Z,6.7
2023-02-11T05:00:37.972Z,6.7
2023-02-11T05:02:41.097Z,6.6
2023-02-11T05:12:59.772Z,6.6
2023-02-11T05:17:05.916Z,6.7
2023-02-11T05:19:09.021Z,6.7
2023-02-11T05:31:30.819Z,6.7
2023-02-11T05:35:40.218Z,6.7
2023-02-11T05:41:49.490Z,6.7
2023-02-11T05:43:52.579Z,6.6
2023-02-11T05:45:55.728Z,6.7
2023-02-11T05:47:58.794Z,6.7
2023-02-11T05:50:05.071Z,6.7
2023-02-11T05:54:11.243Z,6.8
2023-02-11T05:55:14.399Z,6.7
2023-02-11T06:07:36.180Z,6.6
2023-02-11T06:09:39.300Z,6.7
2023-02-11T06:11:42.388Z,6.7
2023-02-11T06:13:45.505Z,6.7
2023-02-11T06:15:48.928Z,6.7
2023-02-11T06:22:01.112Z,6.8
2023-02-11T06:24:04.200Z,6.8
2023-02-11T06:26:07.293Z,6.7
2023-02-11T06:28:10.445Z,6.7
2023-02-11T06:30:13.495Z,6.7
2023-02-11T06:32:39.283Z,6.7
2023-02-11T06:34:22.893Z,6.8
2023-02-11T06:36:25.994Z,6.8
2023-02-11T06:38:29.115Z,6.8
2023-02-11T06:40:32.232Z,6.8
2023-02-11T06:42:35.268Z,6.7
2023-02-11T06:44:38.363Z,6.8
2023-02-11T06:48:47.757Z,6.8
2023-02-11T06:50:50.876Z,6.9
2023-02-11T06:57:21.252Z,6.9
2023-02-11T06:59:27.544Z,6.7
2023-02-11T07:01:30.671Z,6.7
2023-02-11T07:03:33.727Z,6.8
2023-02-11T07:05:36.824Z,6.8
2023-02-11T07:07:39.934Z,6.8
2023-02-11T07:09:43.040Z,6.8
2023-02-11T07:13:52.436Z,6.8
2023-02-11T07:15:55.635Z,6.8
2023-02-11T07:17:58.599Z,6.8
2023-02-11T07:20:01.722Z,6.9
2023-02-11T07:22:04.819Z,6.8
2023-02-11T07:24:10.769Z,6.9
2023-02-11T07:26:11.040Z,6.9
2023-02-11T07:28:17.401Z,6.9
2023-02-11T07:30:20.431Z,6.9
2023-02-11T07:32:23.522Z,7
2023-02-11T07:34:26.640Z,6.9
2023-02-11T07:36:29.776Z,6.9
2023-02-11T07:38:32.864Z,7
2023-02-11T07:40:35.936Z,7
2023-02-11T07:42:42.217Z,6.9
2023-02-11T07:44:45.327Z,6.9
2023-02-11T07:46:48.498Z,7
2023-02-11T07:47:51.598Z,6.9
2023-02-11T07:49:56.556Z,7.1
2023-02-11T07:54:00.900Z,7
2023-02-11T07:58:10.311Z,7.1
2023-02-11T08:04:19.582Z,7.2
2023-02-11T08:06:22.678Z,7.3
2023-02-11T08:08:25.786Z,7.2
2023-02-11T08:10:32.092Z,7.3
2023-02-11T08:12:35.163Z,7.2
2023-02-11T08:16:41.488Z,7.4
2023-02-11T08:18:44.449Z,7.4
2023-02-11T08:20:47.633Z,7.4
2023-02-11T08:22:50.784Z,7.3
2023-02-11T08:27:00.147Z,7.4
2023-02-11T08:29:03.155Z,7.4
2023-02-11T08:31:06.289Z,7.4
2023-02-11T08:33:09.331Z,7.4
2023-02-11T08:35:12.449Z,7.4
2023-02-11T08:37:15.550Z,7.4
2023-02-11T08:43:28.042Z,7.6
2023-02-11T08:44:31.208Z,7.5
2023-02-11T08:46:34.405Z,7.6
2023-02-11T08:48:37.441Z,7.6
2023-02-11T08:50:40.542Z,7.8
2023-02-11T08:52:46.881Z,7.8
2023-02-11T08:54:49.980Z,7.9
2023-02-11T08:56:53.095Z,7.9
2023-02-11T08:58:56.208Z,7.9
2023-02-11T09:07:11.989Z,8.1
2023-02-11T09:11:18.312Z,7.9
2023-02-11T09:13:21.331Z,8
2023-02-11T09:15:24.445Z,8
2023-02-11T09:17:27.535Z,8.1
2023-02-11T09:19:30.658Z,8.1
2023-02-11T09:21:36.985Z,8.2
2023-02-11T09:23:40.088Z,8.3
2023-02-11T09:25:43.206Z,8.4
2023-02-11T09:27:47.925Z,8.7
2023-02-11T09:29:50.947Z,8.8
2023-02-11T09:31:54.228Z,8.8
2023-02-11T09:33:57.197Z,8.6
2023-02-11T09:36:03.525Z,8.8
2023-02-11T09:38:06.637Z,8.9
2023-02-11T09:40:09.768Z,9.1
2023-02-11T09:49:28.640Z,8.8
2023-02-11T09:51:31.766Z,9
2023-02-11T09:53:34.899Z,9.1
2023-02-11T09:55:38.133Z,9.1
2023-02-11T09:57:41.152Z,9.1
2023-02-11T10:01:47.488Z,9.2
2023-02-11T10:05:56.864Z,9.2
2023-02-11T10:07:59.998Z,9.4
2023-02-11T10:12:06.245Z,9.5
2023-02-11T10:14:09.397Z,9.5
2023-02-11T10:16:12.596Z,9.6
2023-02-11T10:18:18.885Z,9.7
2023-02-11T10:20:22.044Z,9.6
2023-02-11T10:22:25.124Z,9.6
2023-02-11T10:24:28.260Z,9.7
2023-02-11T10:26:31.378Z,9.4
2023-02-11T10:28:34.640Z,9.4
2023-02-11T10:30:37.640Z,9.5
2023-02-11T10:32:43.957Z,9.5
2023-02-11T10:34:47.146Z,9.5
2023-02-11T10:39:14.305Z,9.7
2023-02-11T10:41:17.456Z,9.7
2023-02-11T10:43:20.573Z,9.5
2023-02-11T10:45:26.955Z,9.5
2023-02-11T10:47:30.057Z,9.6
2023-02-11T10:49:33.194Z,9.6
2023-02-11T10:51:36.302Z,9.7
2023-02-11T10:53:39.448Z,9.7
2023-02-11T10:57:45.741Z,9.6
2023-02-11T10:59:52.085Z,9.8
2023-02-11T11:01:55.239Z,9.8
2023-02-11T11:03:58.364Z,9.9
2023-02-11T11:06:01.497Z,9.8
2023-02-11T11:08:04.656Z,9.7
2023-02-11T11:10:07.797Z,9.8
2023-02-11T11:12:10.955Z,9.9
2023-02-11T11:14:17.287Z,9.9
2023-02-11T11:16:20.475Z,9.9
2023-02-11T11:18:23.766Z,9.9
2023-02-11T11:20:26.702Z,9.9
2023-02-11T11:22:29.842Z,9.9
2023-02-11T11:24:32.966Z,9.9
2023-02-11T11:26:36.113Z,9.8
2023-02-11T11:28:42.446Z,9.7
2023-02-11T11:30:45.613Z,9.7
2023-02-11T11:32:48.737Z,9.7
2023-02-11T11:33:51.907Z,9.8
2023-02-11T11:35:55.052Z,9.7
2023-02-11T11:38:01.281Z,9.7
2023-02-11T11:40:01.348Z,9.8
2023-02-11T11:42:07.681Z,9.8
2023-02-11T11:44:11.259Z,9.9
2023-02-11T11:46:14.433Z,10
2023-02-11T11:48:17.521Z,10.1
2023-02-11T11:50:21.270Z,10.1
2023-02-11T11:52:23.797Z,10.2
2023-02-11T11:54:26.903Z,10.3
2023-02-11T11:56:33.274Z,10.2
2023-02-11T11:58:36.410Z,10.2
2023-02-11T12:00:39.550Z,10.1
2023-02-11T12:02:42.710Z,10.3
2023-02-11T12:04:45.834Z,10.3
2023-02-11T12:06:48.973Z,10.4
2023-02-11T12:08:52.088Z,10.5
2023-02-11T12:10:58.449Z,10.6
2023-02-11T12:13:01.581Z,10.7
2023-02-11T12:15:04.717Z,11.1
2023-02-11T12:17:07.886Z,11.4
2023-02-11T12:19:11.014Z,11.4
2023-02-11T12:21:14.171Z,11.6
2023-02-11T12:23:17.310Z,11.5
2023-02-11T12:25:23.696Z,11.3
2023-02-11T12:27:26.809Z,11.2
2023-02-11T12:29:29.980Z,11
2023-02-11T12:32:36.304Z,11.4
2023-02-11T12:36:42.520Z,11.3
2023-02-11T12:38:48.652Z,11
2023-02-11T12:40:51.979Z,11.1
2023-02-11T12:42:54.739Z,11.2
2023-02-11T12:44:57.811Z,11.4
2023-02-11T12:51:06.939Z,11.1
2023-02-11T12:55:16.247Z,11.1
2023-02-11T12:57:19.312Z,11.1
2023-02-11T12:59:22.353Z,11.3
2023-02-11T13:01:25.519Z,11.2
2023-02-11T13:03:28.653Z,11.3
2023-02-11T13:05:31.703Z,11.4
2023-02-11T13:07:37.981Z,11.2
2023-02-11T13:13:47.133Z,11.5
2023-02-11T13:15:50.176Z,11.4
2023-02-11T13:17:53.335Z,11.6
2023-02-11T13:19:56.382Z,11.4
2023-02-11T13:22:02.586Z,11.5
2023-02-11T13:24:05.609Z,11.6
2023-02-11T13:26:08.693Z,11.7
2023-02-11T13:31:18.072Z,11.9
2023-02-11T13:35:27.124Z,12
2023-02-11T13:37:30.180Z,12
2023-02-11T13:39:33.226Z,12.1
2023-02-11T13:41:36.292Z,12.2
2023-02-11T13:43:39.329Z,12.4
2023-02-11T13:45:42.396Z,12.6
2023-02-11T13:47:45.445Z,12.4
2023-02-11T13:49:51.597Z,12.6
2023-02-11T13:51:54.665Z,12.3
2023-02-11T13:53:57.730Z,12.9
2023-02-11T13:56:00.760Z,13.5
2023-02-11T14:00:06.921Z,12.8
2023-02-11T14:02:09.984Z,13.1
2023-02-11T14:04:16.071Z,12.4
2023-02-11T14:06:19.139Z,12.2
2023-02-11T14:08:22.207Z,11.7
2023-02-11T14:10:25.258Z,11.5
2023-02-11T14:12:28.735Z,11.6
2023-02-11T14:14:31.821Z,11.9
2023-02-11T14:22:47.156Z,11.7
2023-02-11T14:25:16.755Z,11.4
2023-02-11T14:27:19.695Z,11.3
2023-02-11T14:29:22.772Z,11.3
2023-02-11T14:31:29.067Z,11
2023-02-11T14:33:31.968Z,11
2023-02-11T14:35:35.127Z,10.9
2023-02-11T14:37:38.073Z,10.8
2023-02-11T14:39:41.120Z,10.9
2023-02-11T14:41:44.175Z,10.6
2023-02-11T14:43:47.356Z,10.7
2023-02-11T14:47:56.884Z,10.5
2023-02-11T14:50:00.012Z,10.5
2023-02-11T14:54:06.333Z,10.5
2023-02-11T14:56:09.468Z,10.6
2023-02-11T15:00:19.053Z,10.4
2023-02-11T15:02:22.152Z,10.5
2023-02-11T15:04:25.304Z,10.5
2023-02-11T15:06:28.430Z,10.5
2023-02-11T15:08:31.588Z,10.4
2023-02-11T15:12:37.872Z,10.4
2023-02-11T15:16:47.329Z,10.4
2023-02-11T15:18:50.475Z,10.5
2023-02-11T15:19:53.650Z,10.5
2023-02-11T15:21:58.343Z,10.4
2023-02-11T15:38:26.669Z,10.6
2023-02-11T15:40:29.841Z,10.8
2023-02-11T15:42:50.722Z,10.6
2023-02-11T15:46:42.561Z,10.4
2023-02-11T15:48:45.585Z,10.3
2023-02-11T15:50:48.802Z,10.3
2023-02-11T15:52:51.886Z,10.3
2023-02-11T15:54:55.035Z,10.4
2023-02-11T15:57:01.400Z,10.5
2023-02-11T15:59:04.519Z,10.5
2023-02-11T16:01:07.653Z,10.6
2023-02-11T16:07:17.087Z,10.4
2023-02-11T16:09:20.212Z,10.4
2023-02-11T16:11:26.550Z,10.4
2023-02-11T16:15:32.832Z,10.3
2023-02-11T16:16:36.255Z,10.4
2023-02-11T16:18:40.102Z,10.4
2023-02-11T16:20:42.258Z,10.4
2023-02-11T16:22:45.448Z,10.5
2023-02-11T16:24:51.737Z,10.4
2023-02-11T16:28:58.040Z,10.3
2023-02-11T16:39:16.898Z,10
2023-02-11T16:41:20.003Z,10.1
2023-02-11T16:47:29.412Z,9.9
2023-02-11T16:51:35.693Z,9.9
2023-02-11T16:55:45.191Z,9.8
2023-02-11T16:59:51.446Z,9.3
2023-02-11T17:03:57.720Z,9.7
2023-02-11T17:06:01.138Z,9.7
2023-02-11T17:10:10.358Z,9.6
2023-02-11T17:12:13.490Z,9.6
2023-02-11T17:13:16.660Z,9.6
2023-02-11T17:15:19.812Z,9.6
2023-02-11T17:17:22.912Z,9.7
2023-02-11T17:19:26.197Z,9.5
2023-02-11T17:21:32.398Z,9.5
2023-02-11T17:23:35.525Z,9.5
2023-02-11T17:25:38.648Z,9.5
2023-02-11T17:27:41.788Z,9.4
2023-02-11T17:31:48.088Z,9.4
2023-02-11T17:33:51.190Z,9.4
2023-02-11T17:35:57.516Z,9.3
2023-02-11T17:38:00.638Z,9.4
2023-02-11T17:40:03.833Z,9.4
2023-02-11T17:42:06.928Z,9.4
2023-02-11T17:44:10.046Z,9.4
2023-02-11T17:46:13.208Z,9.4
2023-02-11T17:48:16.296Z,9.3
2023-02-11T17:50:22.596Z,9.3
2023-02-11T17:52:25.748Z,9.3
2023-02-11T17:54:28.886Z,9.3
2023-02-11T17:56:31.998Z,9.2
2023-02-11T17:58:35.042Z,9.2
2023-02-11T18:00:38.175Z,9.4
2023-02-11T18:02:41.306Z,9.3
2023-02-11T18:04:47.657Z,9.2
2023-02-11T18:06:50.763Z,9.2
2023-02-11T18:08:56.250Z,9.1
2023-02-11T18:11:17.763Z,9.1
2023-02-11T18:13:20.899Z,9.1
2023-02-11T18:15:24.047Z,9.1
2023-02-11T18:17:30.371Z,9
2023-02-11T18:19:33.474Z,9
2023-02-11T18:21:36.633Z,9
2023-02-11T18:23:39.781Z,9.1
2023-02-11T18:25:42.897Z,9
2023-02-11T18:27:46.045Z,9.1
2023-02-11T18:29:49.169Z,9
2023-02-11T18:31:55.565Z,8.9
2023-02-11T18:33:58.609Z,9
2023-02-11T18:36:01.745Z,9
2023-02-11T18:38:04.883Z,8.9
2023-02-11T18:40:08.034Z,8.8
2023-02-11T18:42:11.144Z,8.9
2023-02-11T18:44:14.277Z,8.9
2023-02-11T18:46:20.674Z,8.9
2023-02-11T18:48:23.726Z,8.8
2023-02-11T18:50:26.876Z,8.9
2023-02-11T19:00:45.719Z,8.8
2023-02-11T19:02:48.849Z,8.7
2023-02-11T19:05:55.154Z,8.8
2023-02-11T19:07:58.282Z,8.7
2023-02-11T19:10:01.415Z,8.7
2023-02-11T19:12:04.527Z,8.7
2023-02-11T19:14:10.843Z,8.8
2023-02-11T19:16:13.969Z,8.7
2023-02-11T19:18:17.145Z,8.7
2023-02-11T19:20:20.216Z,8.6
2023-02-11T19:22:23.358Z,8.7
2023-02-11T19:24:26.457Z,8.8
2023-02-11T19:26:29.584Z,8.7
2023-02-11T19:28:35.962Z,8.7
2023-02-11T19:30:39.089Z,8.7
2023-02-11T19:32:42.163Z,8.7
2023-02-11T19:34:45.264Z,8.6
2023-02-11T19:36:48.381Z,8.7
2023-02-11T19:38:51.496Z,8.6
2023-02-11T19:40:54.632Z,8.5
2023-02-11T19:47:07.231Z,8.6
2023-02-11T19:49:10.336Z,8.6
2023-02-11T19:51:13.553Z,8.6
2023-02-11T19:53:16.594Z,8.6
2023-02-11T19:55:19.726Z,8.6
2023-02-11T19:57:26.069Z,8.5
2023-02-11T20:02:35.570Z,8.4
2023-02-11T20:04:38.620Z,8.5
2023-02-11T20:06:41.752Z,8.4
2023-02-11T20:08:44.868Z,8.5
2023-02-11T20:19:03.644Z,8.4
2023-02-11T20:21:06.767Z,8.5
2023-02-11T20:23:09.886Z,8.4
2023-02-11T20:25:16.194Z,8.4
2023-02-11T20:27:20.203Z,8.3
2023-02-11T20:29:22.429Z,8.5
2023-02-11T20:31:25.700Z,8.5
2023-02-11T20:37:34.908Z,8.3
2023-02-11T20:39:41.229Z,8.4
2023-02-11T20:41:44.406Z,8.5
2023-02-11T20:43:47.462Z,8.5
2023-02-11T20:45:50.898Z,8.5
2023-02-11T20:47:53.716Z,8.3
2023-02-11T20:49:56.841Z,8.4
2023-02-11T20:54:06.333Z,8.3
2023-02-11T20:56:09.386Z,8.4
2023-02-11T20:58:12.519Z,8.4
2023-02-11T20:59:15.673Z,8.4
2023-02-11T21:01:18.822Z,8.3
2023-02-11T21:03:21.954Z,8.3
2023-02-11T21:05:25.031Z,8.4
2023-02-11T21:07:31.370Z,8.3
2023-02-11T21:09:34.468Z,8.4
2023-02-11T21:11:37.623Z,8.3
2023-02-11T21:17:48.520Z,8.3
2023-02-11T21:24:01.044Z,8.3
2023-02-11T21:28:07.292Z,8.3
2023-02-11T21:30:10.381Z,8.3
2023-02-11T21:34:16.634Z,8.3
2023-02-11T21:36:22.955Z,8.2
2023-02-11T21:38:26.078Z,8.3
2023-02-11T21:40:29.178Z,8.2
2023-02-11T21:42:32.290Z,8.2
2023-02-11T21:44:35.421Z,8.2
2023-02-11T21:46:38.770Z,8.3
2023-02-11T21:48:41.661Z,8.2
2023-02-11T21:50:47.973Z,8.2
2023-02-11T21:52:51.117Z,8.3
2023-02-11T21:54:54.216Z,8.3
2023-02-11T21:57:24.023Z,8.3
2023-02-11T22:05:39.704Z,8.1
2023-02-11T22:09:45.922Z,8.1
2023-02-11T22:11:49.051Z,8.1
2023-02-11T22:13:52.159Z,8.1
2023-02-11T22:15:55.649Z,8.1
2023-02-11T22:22:07.843Z,8.1
2023-02-11T22:24:10.955Z,8.2
2023-02-11T22:26:14.063Z,8.1
2023-02-11T22:28:17.212Z,8.1
2023-02-11T22:30:20.303Z,8.1
2023-02-11T22:32:26.601Z,8.2
2023-02-11T22:34:29.732Z,8.1
2023-02-11T22:36:32.865Z,8.2
2023-02-11T22:38:35.987Z,8.2
2023-02-11T22:40:39.093Z,8.1
2023-02-11T22:42:42.195Z,8.1
2023-02-11T22:44:45.319Z,8
2023-02-11T22:46:51.653Z,8.1
2023-02-11T22:48:54.758Z,8.1
2023-02-11T22:50:57.863Z,8
2023-02-11T22:52:01.042Z,8
2023-02-11T22:54:04.168Z,8
2023-02-11T22:56:07.271Z,8.1
2023-02-11T22:58:10.417Z,8.1
2023-02-11T23:00:16.732Z,8.2
2023-02-11T23:02:20.096Z,8.1
2023-02-11T23:04:22.980Z,8
2023-02-11T23:06:26.104Z,8.1
2023-02-11T23:08:29.188Z,8
2023-02-11T23:10:32.328Z,8.1
2023-02-11T23:12:35.456Z,7.9
2023-02-11T23:14:41.765Z,7.9
2023-02-11T23:16:45.097Z,7.9
2023-02-11T23:18:47.999Z,7.9
2023-02-11T23:20:51.113Z,7.7
2023-02-11T23:22:54.285Z,7.8
2023-02-11T23:24:57.365Z,7.8
2023-02-11T23:27:00.471Z,7.7
2023-02-11T23:29:06.811Z,7.7
2023-02-11T23:31:09.944Z,7.7
2023-02-11T23:33:13.013Z,7.7
2023-02-11T23:35:16.138Z,7.7
2023-02-11T23:37:19.286Z,7.6
2023-02-11T23:39:22.386Z,7.6
2023-02-11T23:41:25.464Z,7.5
2023-02-11T23:45:34.942Z,7.5
2023-02-11T23:47:38.050Z,7.5
2023-02-11T23:48:41.217Z,7.5
2023-02-11T23:50:44.327Z,7.4
2023-02-11T23:52:47.438Z,7.3
2023-02-11T23:54:50.539Z,7.3
2023-02-11T23:56:56.848Z,7.3
2023-02-11T23:58:59.961Z,7.3
